createdAt,value
2022-12-22T00:02:00.588Z,8.42
2022-12-22T00:04:46.289Z,8.41
2022-12-22T00:07:31.173Z,8.39
2022-12-22T00:10:15.818Z,8.41
2022-12-22T00:13:03.524Z,8.46
2022-12-22T00:15:52.802Z,8.52
2022-12-22T00:18:38.161Z,8.52
2022-12-22T00:21:23.440Z,8.58
2022-12-22T00:24:08.256Z,8.62
2022-12-22T00:26:54.459Z,8.63
2022-12-22T00:29:43.706Z,8.61
2022-12-22T00:32:33.029Z,8.59
2022-12-22T00:35:18.946Z,8.57
2022-12-22T00:38:04.253Z,8.58
2022-12-22T00:40:49.040Z,8.59
2022-12-22T00:43:33.861Z,8.61
2022-12-22T00:46:21.107Z,8.63
2022-12-22T00:49:07.068Z,8.67
2022-12-22T00:51:52.872Z,8.68
2022-12-22T00:54:38.949Z,8.71
2022-12-22T00:57:23.983Z,8.66
2022-12-22T01:00:09.809Z,8.67
2022-12-22T01:02:54.837Z,8.66
2022-12-22T01:05:43.504Z,8.67
2022-12-22T01:08:29.370Z,8.64
2022-12-22T01:11:17.450Z,8.62
2022-12-22T01:14:02.238Z,8.61
2022-12-22T01:16:47.584Z,8.67
2022-12-22T01:19:32.965Z,8.71
2022-12-22T01:22:18.147Z,8.79
2022-12-22T01:25:04.620Z,8.83
2022-12-22T01:27:49.652Z,8.84
2022-12-22T01:30:35.101Z,8.87
2022-12-22T01:33:20.177Z,8.83
2022-12-22T01:36:11.496Z,8.83
2022-12-22T01:38:56.303Z,8.78
2022-12-22T01:41:44.733Z,8.77
2022-12-22T01:44:36.805Z,8.76
2022-12-22T01:47:50.365Z,8.74
2022-12-22T01:50:52.336Z,8.75
2022-12-22T01:53:41.914Z,8.79
2022-12-22T01:56:33.979Z,8.81
2022-12-22T01:59:22.470Z,8.88
2022-12-22T02:02:07.559Z,8.88
2022-12-22T02:05:00.702Z,8.96
2022-12-22T02:07:54.554Z,8.94
2022-12-22T02:10:54.261Z,8.95
2022-12-22T02:14:15.743Z,8.94
2022-12-22T02:17:35.347Z,8.95
2022-12-22T02:20:34.091Z,9.00
2022-12-22T02:23:44.046Z,8.96
2022-12-22T02:26:52.533Z,8.93
2022-12-22T02:29:49.300Z,8.93
2022-12-22T02:32:34.508Z,8.94
2022-12-22T02:35:19.641Z,8.94
2022-12-22T02:38:15.622Z,8.92
2022-12-22T02:41:14.439Z,8.94
2022-12-22T02:44:09.271Z,8.97
2022-12-22T02:47:18.842Z,8.99
2022-12-22T02:50:16.812Z,9.01
2022-12-22T02:53:04.711Z,9.05
2022-12-22T02:55:52.011Z,9.04
2022-12-22T02:58:37.308Z,9.03
2022-12-22T03:01:23.890Z,9.00
2022-12-22T03:04:09.031Z,8.99
2022-12-22T03:06:53.732Z,8.97
2022-12-22T03:09:38.454Z,8.92
2022-12-22T03:12:23.780Z,8.91
2022-12-22T03:15:08.474Z,8.92
2022-12-22T03:17:53.305Z,8.93
2022-12-22T03:20:38.148Z,8.98
2022-12-22T03:23:24.943Z,8.97
2022-12-22T03:25:54.570Z,8.93
2022-12-22T03:28:30.275Z,8.94
2022-12-22T03:30:58.183Z,8.96
2022-12-22T03:33:24.825Z,8.96
2022-12-22T03:35:51.382Z,8.99
2022-12-22T03:38:18.099Z,9.06
2022-12-22T03:40:44.748Z,9.07
2022-12-22T03:43:31.249Z,9.12
2022-12-22T03:46:17.229Z,9.17
2022-12-22T03:48:45.086Z,9.14
2022-12-22T03:51:11.644Z,9.09
2022-12-22T03:53:38.098Z,9.07
2022-12-22T03:56:07.919Z,9.09
2022-12-22T03:58:34.819Z,9.11
2022-12-22T04:01:06.874Z,9.11
2022-12-22T04:03:33.816Z,9.13
2022-12-22T04:06:00.394Z,9.17
2022-12-22T04:08:26.950Z,9.14
2022-12-22T04:11:11.871Z,9.14
2022-12-22T04:13:38.385Z,9.14
2022-12-22T04:16:05.081Z,9.12
2022-12-22T04:18:31.640Z,9.14
2022-12-22T04:20:58.284Z,9.19
2022-12-22T04:23:24.811Z,9.16
2022-12-22T04:25:54.110Z,9.13
2022-12-22T04:28:20.655Z,9.08
2022-12-22T04:30:54.858Z,9.14
2022-12-22T04:33:21.344Z,9.17
2022-12-22T04:35:47.824Z,9.16
2022-12-22T04:38:14.314Z,9.19
2022-12-22T04:40:41.022Z,9.17
2022-12-22T04:43:07.486Z,9.18
2022-12-22T04:45:34.062Z,9.19
2022-12-22T04:48:00.735Z,9.20
2022-12-22T04:50:27.243Z,9.23
2022-12-22T04:52:54.121Z,9.21
2022-12-22T04:55:20.633Z,9.17
2022-12-22T04:57:50.109Z,9.15
2022-12-22T05:00:17.028Z,9.16
2022-12-22T05:02:43.703Z,9.14
2022-12-22T05:05:10.414Z,9.13
2022-12-22T05:07:37.293Z,9.14
2022-12-22T05:10:07.189Z,9.11
2022-12-22T05:12:52.167Z,9.06
2022-12-22T05:15:18.670Z,9.01
2022-12-22T05:17:45.159Z,8.95
2022-12-22T05:20:11.866Z,8.91
2022-12-22T05:22:38.707Z,8.80
2022-12-22T05:25:06.487Z,8.83
2022-12-22T05:27:33.134Z,8.78
2022-12-22T05:29:59.596Z,8.75
2022-12-22T05:32:26.112Z,8.74
2022-12-22T05:34:52.737Z,8.69
2022-12-22T05:37:19.237Z,8.68
2022-12-22T05:39:45.691Z,8.66
2022-12-22T05:42:12.199Z,8.64
2022-12-22T05:44:38.632Z,8.66
2022-12-22T05:47:05.105Z,8.65
2022-12-22T05:49:31.556Z,8.65
2022-12-22T05:51:58.003Z,8.64
2022-12-22T05:54:24.487Z,8.65
2022-12-22T05:56:50.931Z,8.64
2022-12-22T05:59:17.419Z,8.65
2022-12-22T06:01:43.954Z,8.67
2022-12-22T06:04:10.588Z,8.67
2022-12-22T06:06:37.133Z,8.66
2022-12-22T06:09:03.677Z,8.66
2022-12-22T06:11:30.102Z,8.63
2022-12-22T06:13:56.540Z,8.59
2022-12-22T06:16:23.511Z,8.54
2022-12-22T06:18:49.973Z,8.50
2022-12-22T06:21:16.435Z,8.46
2022-12-22T06:23:42.878Z,8.43
2022-12-22T06:26:09.406Z,8.45
2022-12-22T06:28:35.861Z,8.41
2022-12-22T06:31:02.415Z,8.35
2022-12-22T06:33:28.891Z,8.36
2022-12-22T06:35:59.054Z,8.42
2022-12-22T06:38:27.427Z,8.45
2022-12-22T06:40:53.912Z,8.42
2022-12-22T06:43:20.459Z,8.36
2022-12-22T06:45:46.941Z,8.39
2022-12-22T06:48:13.772Z,8.41
2022-12-22T06:50:40.385Z,8.43
2022-12-22T06:53:07.698Z,8.43
2022-12-22T06:55:34.252Z,8.45
2022-12-22T06:58:00.822Z,8.46
2022-12-22T07:00:27.370Z,8.45
2022-12-22T07:02:54.099Z,8.46
2022-12-22T07:05:20.886Z,8.45
2022-12-22T07:07:47.412Z,8.41
2022-12-22T07:10:14.030Z,8.38
2022-12-22T07:12:40.524Z,8.41
2022-12-22T07:15:08.163Z,8.45
2022-12-22T07:17:34.707Z,8.43
2022-12-22T07:20:01.227Z,8.40
2022-12-22T07:22:30.859Z,8.39
2022-12-22T07:24:58.257Z,8.38
2022-12-22T07:27:24.752Z,8.34
2022-12-22T07:29:51.228Z,8.32
2022-12-22T07:32:17.718Z,8.32
2022-12-22T07:34:44.195Z,8.32
2022-12-22T07:37:13.625Z,8.31
2022-12-22T07:39:40.134Z,8.33
2022-12-22T07:42:25.356Z,8.32
2022-12-22T07:44:51.847Z,8.34
2022-12-22T07:47:18.339Z,8.35
2022-12-22T07:50:03.138Z,8.35
2022-12-22T07:52:29.645Z,8.38
2022-12-22T07:54:56.135Z,8.40
2022-12-22T07:57:22.833Z,8.43
2022-12-22T07:59:52.136Z,8.41
2022-12-22T08:02:18.748Z,8.41
2022-12-22T08:04:45.413Z,8.43
2022-12-22T08:07:11.969Z,8.42
2022-12-22T08:09:38.717Z,8.44
2022-12-22T08:12:05.474Z,8.50
2022-12-22T08:14:31.951Z,8.53
2022-12-22T08:16:58.402Z,8.57
2022-12-22T08:19:24.910Z,8.57
2022-12-22T08:21:53.151Z,8.57
2022-12-22T08:24:22.901Z,8.59
2022-12-22T08:26:52.020Z,8.62
2022-12-22T08:29:33.487Z,8.65
2022-12-22T08:32:00.742Z,8.70
2022-12-22T08:34:27.379Z,8.78
2022-12-22T08:36:56.433Z,8.85
2022-12-22T08:39:25.611Z,9.00
2022-12-22T08:41:52.319Z,9.07
2022-12-22T08:44:22.805Z,9.17
2022-12-22T08:46:50.678Z,9.26
2022-12-22T08:49:17.739Z,9.27
2022-12-22T08:51:45.252Z,9.30
2022-12-22T08:54:12.524Z,9.34
2022-12-22T08:56:39.068Z,9.42
2022-12-22T08:59:07.916Z,9.49
2022-12-22T09:01:36.672Z,9.56
2022-12-22T09:04:03.353Z,9.58
2022-12-22T09:06:34.806Z,9.58
2022-12-22T09:09:09.139Z,9.58
2022-12-22T09:11:35.685Z,9.61
2022-12-22T09:14:02.719Z,9.64
2022-12-22T09:16:31.085Z,9.60
2022-12-22T09:18:57.681Z,9.58
2022-12-22T09:21:25.213Z,9.57
2022-12-22T09:23:52.158Z,9.60
2022-12-22T09:26:21.239Z,9.57
2022-12-22T09:28:50.440Z,9.58
2022-12-22T09:31:17.988Z,9.57
2022-12-22T09:33:44.487Z,9.58
2022-12-22T09:36:14.393Z,9.57
2022-12-22T09:38:41.776Z,9.57
2022-12-22T09:41:31.838Z,9.56
2022-12-22T09:44:04.192Z,9.54
2022-12-22T09:46:38.076Z,9.56
2022-12-22T09:49:06.606Z,9.59
2022-12-22T09:51:41.646Z,9.61
2022-12-22T09:54:11.217Z,9.59
2022-12-22T09:56:38.351Z,9.60
2022-12-22T09:59:14.010Z,9.62
2022-12-22T10:01:49.489Z,9.64
2022-12-22T10:04:31.269Z,9.71
2022-12-22T10:07:19.269Z,9.82
2022-12-22T10:09:50.289Z,9.90
2022-12-22T10:12:24.265Z,9.94
2022-12-22T10:14:53.349Z,9.93
2022-12-22T10:17:21.686Z,9.94
2022-12-22T10:19:49.911Z,9.92
2022-12-22T10:22:28.839Z,9.88
2022-12-22T10:24:56.110Z,9.86
2022-12-22T10:27:28.982Z,9.86
2022-12-22T10:30:20.379Z,9.83
2022-12-22T10:33:17.759Z,9.82
2022-12-22T10:35:49.102Z,9.81
2022-12-22T10:38:28.191Z,9.80
2022-12-22T10:41:02.319Z,9.79
2022-12-22T10:43:39.155Z,9.79
2022-12-22T10:46:06.403Z,9.77
2022-12-22T10:48:35.789Z,9.72
2022-12-22T10:51:06.544Z,9.66
2022-12-22T10:53:40.778Z,9.68
2022-12-22T10:56:18.383Z,9.70
2022-12-22T10:58:50.774Z,9.68
2022-12-22T11:01:26.182Z,9.68
2022-12-22T11:03:52.818Z,9.68
2022-12-22T11:06:19.641Z,9.68
2022-12-22T11:08:51.568Z,9.72
2022-12-22T11:11:38.203Z,9.71
2022-12-22T11:14:27.565Z,9.70
2022-12-22T11:17:12.454Z,9.66
2022-12-22T11:20:08.793Z,9.66
2022-12-22T11:22:57.182Z,9.66
2022-12-22T11:25:56.556Z,9.63
2022-12-22T11:28:43.813Z,9.58
2022-12-22T11:31:41.215Z,9.62
2022-12-22T11:34:40.757Z,9.59
2022-12-22T11:37:39.023Z,9.59
2022-12-22T11:40:38.481Z,9.56
2022-12-22T11:43:24.275Z,9.52
2022-12-22T11:45:55.340Z,9.48
2022-12-22T11:48:40.274Z,9.44
2022-12-22T11:51:28.551Z,9.44
2022-12-22T11:54:11.926Z,9.42
2022-12-22T11:56:41.439Z,9.36
2022-12-22T11:59:20.834Z,9.35
2022-12-22T12:01:53.310Z,9.35
2022-12-22T12:04:31.935Z,9.37
2022-12-22T12:07:27.357Z,9.38
2022-12-22T12:10:21.777Z,9.38
2022-12-22T12:13:03.491Z,9.38
2022-12-22T12:15:34.475Z,9.38
2022-12-22T12:18:15.584Z,9.40
2022-12-22T12:21:06.444Z,9.40
2022-12-22T12:23:43.023Z,9.40
2022-12-22T12:26:30.839Z,9.38
2022-12-22T12:29:27.434Z,9.38
2022-12-22T12:32:09.600Z,9.36
2022-12-22T12:34:41.510Z,9.33
2022-12-22T12:37:26.916Z,9.30
2022-12-22T12:40:18.324Z,9.28
2022-12-22T12:42:46.387Z,9.26
2022-12-22T12:45:33.013Z,9.23
2022-12-22T12:48:21.353Z,9.22
2022-12-22T12:50:48.370Z,9.22
2022-12-22T12:53:16.171Z,9.20
2022-12-22T12:55:54.644Z,9.16
2022-12-22T12:58:39.133Z,9.14
2022-12-22T13:01:28.759Z,9.09
2022-12-22T13:04:04.478Z,9.05
2022-12-22T13:06:49.795Z,9.03
2022-12-22T13:12:40.502Z,9.00
2022-12-22T13:15:31.039Z,8.99
2022-12-22T13:17:59.110Z,9.02
2022-12-22T13:20:34.963Z,9.01
2022-12-22T13:23:10.228Z,8.98
2022-12-22T13:25:43.949Z,9.05
2022-12-22T13:28:16.279Z,9.05
2022-12-22T13:30:52.178Z,9.07
2022-12-22T13:33:23.338Z,9.03
2022-12-22T13:35:58.265Z,9.03
2022-12-22T13:38:30.249Z,9.04
2022-12-22T13:41:00.205Z,9.03
2022-12-22T13:43:28.963Z,9.03
2022-12-22T13:45:57.572Z,9.01
2022-12-22T13:48:44.906Z,9.03
2022-12-22T13:51:24.843Z,9.02
2022-12-22T13:54:11.957Z,9.02
2022-12-22T13:56:46.526Z,9.01
2022-12-22T13:59:34.565Z,9.02
2022-12-22T14:02:15.561Z,9.04
2022-12-22T14:05:04.033Z,9.03
2022-12-22T14:07:30.681Z,9.08
2022-12-22T14:09:57.905Z,9.05
2022-12-22T14:12:40.951Z,9.05
2022-12-22T14:15:16.926Z,9.05
2022-12-22T14:17:52.292Z,9.04
2022-12-22T14:20:27.581Z,9.01
2022-12-22T14:23:03.134Z,8.98
2022-12-22T14:25:33.980Z,8.96
2022-12-22T14:28:01.053Z,8.95
2022-12-22T14:30:49.460Z,8.92
2022-12-22T14:33:27.848Z,8.92
2022-12-22T14:36:18.309Z,8.89
2022-12-22T14:39:03.786Z,8.82
2022-12-22T14:41:46.865Z,8.75
2022-12-22T14:44:22.510Z,8.70
2022-12-22T14:47:06.452Z,8.64
2022-12-22T14:49:34.345Z,8.59
2022-12-22T14:52:19.750Z,8.55
2022-12-22T14:54:49.923Z,8.48
2022-12-22T14:57:32.049Z,8.48
2022-12-22T15:00:03.880Z,8.44
2022-12-22T15:02:39.266Z,8.48
2022-12-22T15:05:25.994Z,8.40
2022-12-22T15:08:10.343Z,8.40
2022-12-22T15:10:42.902Z,8.42
2022-12-22T15:13:25.991Z,8.38
2022-12-22T15:15:52.836Z,8.39
2022-12-22T15:18:25.252Z,8.40
2022-12-22T15:20:52.039Z,8.48
2022-12-22T15:23:18.581Z,8.44
2022-12-22T15:25:45.766Z,8.46
2022-12-22T15:28:16.097Z,8.44
2022-12-22T15:30:43.217Z,8.41
2022-12-22T15:33:18.421Z,8.35
2022-12-22T15:35:46.095Z,8.28
2022-12-22T15:38:19.786Z,8.26
2022-12-22T15:40:46.611Z,8.22
2022-12-22T15:43:44.764Z,8.25
2022-12-22T15:46:02.246Z,8.23
2022-12-22T15:48:33.227Z,8.21
2022-12-22T15:51:01.742Z,8.20
2022-12-22T15:53:28.303Z,8.15
2022-12-22T15:55:55.816Z,8.12
2022-12-22T15:58:26.088Z,8.06
2022-12-22T16:00:52.944Z,8.06
2022-12-22T16:03:19.681Z,8.04
2022-12-22T16:05:46.558Z,7.98
2022-12-22T16:08:18.324Z,7.96
2022-12-22T16:10:46.754Z,7.94
2022-12-22T16:13:16.002Z,7.84
2022-12-22T16:15:42.939Z,7.84
2022-12-22T16:18:12.913Z,7.89
2022-12-22T16:20:42.960Z,7.92
2022-12-22T16:23:18.175Z,7.96
2022-12-22T16:25:46.004Z,7.94
2022-12-22T16:28:24.721Z,7.95
2022-12-22T16:30:52.203Z,7.93
2022-12-22T16:33:19.679Z,7.89
2022-12-22T16:35:46.371Z,7.89
2022-12-22T16:38:18.561Z,7.87
2022-12-22T16:40:49.240Z,7.81
2022-12-22T16:43:49.493Z,7.76
2022-12-22T16:46:19.309Z,7.70
2022-12-22T16:48:52.730Z,7.73
2022-12-22T16:51:24.176Z,7.72
2022-12-22T16:53:50.853Z,7.73
2022-12-22T16:56:23.382Z,7.73
2022-12-22T16:58:50.021Z,7.74
2022-12-22T17:01:48.741Z,7.76
2022-12-22T17:04:38.695Z,7.78
2022-12-22T17:07:06.810Z,7.75
2022-12-22T17:09:42.968Z,7.65
2022-12-22T17:12:17.880Z,7.61
2022-12-22T17:14:45.536Z,7.59
2022-12-22T17:17:18.813Z,7.52
2022-12-22T17:19:45.284Z,7.48
2022-12-22T17:22:22.654Z,7.50
2022-12-22T17:24:51.407Z,7.46
2022-12-22T17:27:24.474Z,7.45
2022-12-22T17:29:51.455Z,7.49
2022-12-22T17:32:20.204Z,7.53
2022-12-22T17:34:47.220Z,7.47
2022-12-22T17:37:17.115Z,7.43
2022-12-22T17:39:45.685Z,7.43
2022-12-22T17:42:20.997Z,7.46
2022-12-22T17:44:48.515Z,7.44
2022-12-22T17:47:18.164Z,7.43
2022-12-22T17:49:44.771Z,7.41
2022-12-22T17:52:23.613Z,7.37
2022-12-22T17:54:52.478Z,7.38
2022-12-22T17:57:29.641Z,7.41
2022-12-22T17:59:56.237Z,7.42
2022-12-22T18:02:24.305Z,7.42
2022-12-22T18:04:51.565Z,7.39
2022-12-22T18:07:21.275Z,7.42
2022-12-22T18:09:50.268Z,7.42
2022-12-22T18:12:24.777Z,7.40
2022-12-22T18:14:52.107Z,7.41
2022-12-22T18:17:27.353Z,7.46
2022-12-22T18:19:57.957Z,7.48
2022-12-22T18:22:27.793Z,7.49
2022-12-22T18:24:58.199Z,7.51
2022-12-22T18:27:24.911Z,7.58
2022-12-22T18:29:51.429Z,7.55
2022-12-22T18:32:26.441Z,7.60
2022-12-22T18:34:54.542Z,7.59
2022-12-22T18:37:21.562Z,7.62
2022-12-22T18:39:48.158Z,7.61
2022-12-22T18:42:23.699Z,7.58
2022-12-22T18:44:53.834Z,7.62
2022-12-22T18:47:20.361Z,7.59
2022-12-22T18:49:47.078Z,7.58
2022-12-22T18:52:18.478Z,7.62
2022-12-22T18:54:45.436Z,7.63
2022-12-22T18:57:14.878Z,7.62
2022-12-22T18:59:41.838Z,7.63
2022-12-22T19:02:27.538Z,7.62
2022-12-22T19:04:54.819Z,7.62
2022-12-22T19:07:23.631Z,7.65
2022-12-22T19:09:50.978Z,7.69
2022-12-22T19:12:23.145Z,7.75
2022-12-22T19:14:52.465Z,7.78
2022-12-22T19:17:26.187Z,7.81
2022-12-22T19:19:52.852Z,7.85
2022-12-22T19:22:19.597Z,7.87
2022-12-22T19:24:46.249Z,7.89
2022-12-22T19:27:24.617Z,7.89
2022-12-22T19:30:01.020Z,7.82
2022-12-22T19:32:35.697Z,7.84
2022-12-22T19:35:02.158Z,7.86
2022-12-22T19:37:28.621Z,7.83
2022-12-22T19:39:55.100Z,7.83
2022-12-22T19:42:23.703Z,7.85
2022-12-22T19:44:50.271Z,7.86
2022-12-22T19:47:19.426Z,7.85
2022-12-22T19:49:46.275Z,7.82
2022-12-22T19:52:12.718Z,7.84
2022-12-22T19:54:39.243Z,7.85
2022-12-22T19:57:16.326Z,7.86
2022-12-22T19:59:46.857Z,7.90
2022-12-22T20:02:32.058Z,7.94
2022-12-22T20:04:59.595Z,7.92
2022-12-22T20:07:28.062Z,7.95
2022-12-22T20:09:54.614Z,7.96
2022-12-22T20:12:26.329Z,7.92
2022-12-22T20:14:53.392Z,7.94
2022-12-22T20:17:20.713Z,7.97
2022-12-22T20:19:47.230Z,8.05
2022-12-22T20:22:17.746Z,8.04
2022-12-22T20:24:46.525Z,8.05
2022-12-22T20:27:18.716Z,8.08
2022-12-22T20:29:45.164Z,8.08
2022-12-22T20:32:16.125Z,8.06
2022-12-22T20:34:44.609Z,8.08
2022-12-22T20:37:18.603Z,8.08
2022-12-22T20:39:45.139Z,8.12
2022-12-22T20:42:23.467Z,8.14
2022-12-22T20:45:02.948Z,8.14
2022-12-22T20:47:32.060Z,8.09
2022-12-22T20:49:59.147Z,8.05
2022-12-22T20:52:26.252Z,8.04
2022-12-22T20:54:52.735Z,8.03
2022-12-22T20:57:20.240Z,8.03
2022-12-22T20:59:54.005Z,8.01
2022-12-22T21:02:30.443Z,8.01
2022-12-22T21:04:59.267Z,8.00
2022-12-22T21:07:26.246Z,7.99
2022-12-22T21:09:55.552Z,7.99
2022-12-22T21:12:23.957Z,7.99
2022-12-22T21:14:51.855Z,8.06
2022-12-22T21:17:19.290Z,8.10
2022-12-22T21:19:48.940Z,8.16
2022-12-22T21:22:15.800Z,8.18
2022-12-22T21:24:43.790Z,8.20
2022-12-22T21:27:17.710Z,8.20
2022-12-22T21:29:44.367Z,8.23
2022-12-22T21:32:14.771Z,8.26
2022-12-22T21:34:41.529Z,8.26
2022-12-22T21:37:18.212Z,8.25
2022-12-22T21:39:45.399Z,8.24
2022-12-22T21:42:19.847Z,8.27
2022-12-22T21:44:46.800Z,8.34
2022-12-22T21:47:16.035Z,8.32
2022-12-22T21:49:42.483Z,8.31
2022-12-22T21:52:08.993Z,8.29
2022-12-22T21:54:35.528Z,8.36
2022-12-22T21:57:01.999Z,8.40
2022-12-22T21:59:31.583Z,8.42
2022-12-22T22:01:58.245Z,8.47
2022-12-22T22:04:25.179Z,8.47
2022-12-22T22:06:51.695Z,8.47
2022-12-22T22:09:18.182Z,8.47
2022-12-22T22:12:03.679Z,8.47
2022-12-22T22:14:30.208Z,8.47
2022-12-22T22:16:56.680Z,8.46
2022-12-22T22:19:23.201Z,8.51
2022-12-22T22:21:52.807Z,8.52
2022-12-22T22:24:19.322Z,8.49
2022-12-22T22:26:46.349Z,8.48
2022-12-22T22:29:13.252Z,8.46
2022-12-22T22:31:40.418Z,8.47
2022-12-22T22:34:07.041Z,8.50
2022-12-22T22:36:33.539Z,8.50
2022-12-22T22:38:59.985Z,8.50
2022-12-22T22:41:28.518Z,8.49
2022-12-22T22:43:55.039Z,8.46
2022-12-22T22:46:21.708Z,8.48
2022-12-22T22:48:48.251Z,8.48
2022-12-22T22:51:14.735Z,8.46
2022-12-22T22:53:44.251Z,8.50
2022-12-22T22:56:10.701Z,8.48
2022-12-22T22:58:37.194Z,8.48
2022-12-22T23:01:09.244Z,8.48
2022-12-22T23:03:38.613Z,8.48
2022-12-22T23:06:07.732Z,8.52
2022-12-22T23:08:35.024Z,8.52
2022-12-22T23:11:02.390Z,8.53
2022-12-22T23:13:29.329Z,8.55
2022-12-22T23:16:05.365Z,8.49
2022-12-22T23:18:32.408Z,8.48
2022-12-22T23:21:00.230Z,8.48
2022-12-22T23:23:29.986Z,8.48
2022-12-22T23:25:57.061Z,8.49
2022-12-22T23:28:29.752Z,8.52
2022-12-22T23:30:56.317Z,8.53
2022-12-22T23:33:22.942Z,8.53
2022-12-22T23:35:50.562Z,8.52
2022-12-22T23:38:23.105Z,8.53
2022-12-22T23:40:55.314Z,8.55
2022-12-22T23:43:22.139Z,8.57
2022-12-22T23:45:48.686Z,8.57
2022-12-22T23:48:15.267Z,8.62
2022-12-22T23:50:47.489Z,8.61
2022-12-22T23:53:14.880Z,8.60
2022-12-22T23:55:49.148Z,8.62
2022-12-22T23:58:16.749Z,8.63
